Time;durP1;ratioP1;P1;durP2;ratioP2;P2;SDS_P1;SDS_P2;PMS_P1;PMS_P2;Temp;Humidity;BMP_temperature;BMP_pressure;BME280_temperature;BME280_humidity;BME280_pressure;Samples;Min_cycle;Max_cycle;Signal;HPM_P1;HPM_P2
2022/03/04 00:01:57;;;;;;;19.07;12.97;;;;;;;0.68;67.54;98796.63;5013256;28;103969;-68
2022/03/04 00:04:26;;;;;;;15.83;12.73;;;;;;;0.75;67.71;98797.31;5010215;28;105957;-68
2022/03/04 00:06:54;;;;;;;18.80;13.60;;;;;;;0.31;68.76;98798.66;5014450;28;102702;-68
2022/03/04 00:09:23;;;;;;;13.50;11.80;;;;;;;0.52;68.87;98796.28;5014368;27;104076;-72
2022/03/04 00:11:54;;;;;;;14.63;11.20;;;;;;;0.69;67.78;98797.50;5012472;27;104671;-72
2022/03/04 00:14:22;;;;;;;14.27;10.83;;;;;;;0.78;67.62;98800.66;5011966;28;104172;-68
2022/03/04 00:16:50;;;;;;;17.87;13.23;;;;;;;0.54;67.70;98802.25;5012371;28;102649;-71
2022/03/04 00:19:19;;;;;;;15.33;12.03;;;;;;;0.65;68.18;98796.72;5012716;27;103610;-72
2022/03/04 00:21:49;;;;;;;15.87;12.60;;;;;;;0.44;68.82;98798.25;5014207;27;104577;-68
2022/03/04 00:24:18;;;;;;;19.60;13.40;;;;;;;0.50;68.04;98805.88;5013983;27;103178;-68
2022/03/04 00:26:47;;;;;;;14.93;12.47;;;;;;;0.59;67.73;98805.56;5011470;28;102621;-67
2022/03/04 00:29:15;;;;;;;19.97;13.37;;;;;;;0.61;67.27;98807.28;5013810;28;102594;-72
2022/03/04 00:31:46;;;;;;;20.23;14.80;;;;;;;0.47;67.80;98811.16;5013664;28;103311;-72
2022/03/04 00:34:14;;;;;;;18.03;13.93;;;;;;;0.53;68.19;98808.34;5014217;28;103218;-72
2022/03/04 00:36:43;;;;;;;21.77;15.67;;;;;;;0.34;68.43;98809.81;5015188;27;102568;-68
2022/03/04 00:39:13;;;;;;;19.73;14.53;;;;;;;0.12;69.81;98811.31;5012458;27;103826;-67
2022/03/04 00:41:42;;;;;;;13.40;11.17;;;;;;;0.18;69.21;98818.94;5012981;27;104163;-68
2022/03/04 00:44:11;;;;;;;17.63;13.53;;;;;;;0.41;68.19;98813.94;5012794;28;103221;-68
2022/03/04 00:46:39;;;;;;;15.70;11.70;;;;;;;0.46;68.29;98811.19;5016794;28;103121;-68
2022/03/04 00:49:07;;;;;;;18.03;12.73;;;;;;;0.52;67.73;98819.66;5014211;27;102757;-72
2022/03/04 00:51:35;;;;;;;17.73;13.63;;;;;;;-0.04;69.54;98816.13;5015845;28;103995;-72
2022/03/04 00:54:05;;;;;;;19.80;14.73;;;;;;;-0.40;70.22;98821.47;5017284;27;103297;-72
2022/03/04 00:56:33;;;;;;;17.80;11.87;;;;;;;-0.16;70.95;98819.06;5020249;27;102577;-72
2022/03/04 00:59:01;;;;;;;18.20;13.87;;;;;;;-0.25;70.89;98815.84;5017402;27;103603;-67
2022/03/04 01:01:29;;;;;;;18.33;12.80;;;;;;;-0.30;70.77;98822.91;5016081;28;103250;-72
2022/03/04 01:03:57;;;;;;;19.07;14.13;;;;;;;-0.20;70.28;98816.59;5018018;28;103227;-72
2022/03/04 01:06:25;;;;;;;19.27;14.73;;;;;;;-0.10;69.81;98815.44;5014653;28;102720;-67
2022/03/04 01:08:54;;;;;;;18.50;14.00;;;;;;;-0.34;70.35;98821.31;5017251;28;103531;-72
2022/03/04 01:11:23;;;;;;;15.23;13.03;;;;;;;-0.18;70.26;98822.59;5015378;28;104137;-67
2022/03/04 01:13:51;;;;;;;15.47;12.67;;;;;;;0.01;69.33;98823.78;5018993;27;103660;-71
2022/03/04 01:16:19;;;;;;;19.57;14.53;;;;;;;-0.03;68.99;98816.97;5015931;27;102917;-72
2022/03/04 01:18:47;;;;;;;20.33;13.87;;;;;;;-0.60;71.37;98824.56;5018174;28;104340;-68
2022/03/04 01:21:15;;;;;;;17.00;13.87;;;;;;;-0.35;70.83;98823.03;5015894;27;104139;-68
2022/03/04 01:23:43;;;;;;;18.80;13.40;;;;;;;-0.26;70.46;98819.34;5016483;27;103198;-72
2022/03/04 01:26:11;;;;;;;19.27;14.33;;;;;;;-0.33;70.18;98817.78;5018778;27;103095;-67
2022/03/04 01:28:41;;;;;;;18.37;14.37;;;;;;;-0.53;70.23;98815.72;5012414;28;104050;-68
2022/03/04 01:31:10;;;;;;;15.70;12.47;;;;;;;-0.42;70.20;98811.09;5016181;27;103571;-68
2022/03/04 01:33:38;;;;;;;19.83;14.17;;;;;;;-0.72;70.92;98814.50;5016282;28;103221;-71
2022/03/04 01:36:06;;;;;;;16.17;13.03;;;;;;;-0.63;71.03;98816.88;5016086;28;102722;-72
2022/03/04 01:38:35;;;;;;;13.37;10.83;;;;;;;-0.62;70.39;98814.22;5017207;28;102852;-72
2022/03/04 01:41:04;;;;;;;17.60;11.80;;;;;;;-0.53;70.50;98818.31;5017286;28;103402;-68
2022/03/04 01:43:32;;;;;;;15.67;13.30;;;;;;;-0.45;69.75;98811.19;5016329;28;103189;-71
2022/03/04 01:46:12;;;;;;;15.20;11.67;;;;;;;-0.41;69.87;98806.75;5018181;27;103099;-68
2022/03/04 01:48:41;;;;;;;17.27;12.70;;;;;;;-0.57;69.86;98806.34;5018121;28;104147;-71
2022/03/04 01:51:10;;;;;;;16.07;10.87;;;;;;;-0.44;70.28;98809.44;5017292;27;103275;-67
2022/03/04 01:53:40;;;;;;;19.97;13.97;;;;;;;-0.50;69.41;98801.81;5010227;27;103134;-67
2022/03/04 01:56:08;;;;;;;16.40;12.50;;;;;;;-0.42;70.12;98805.09;5012254;28;102911;-67
2022/03/04 01:58:36;;;;;;;13.23;10.13;;;;;;;-0.33;69.93;98807.41;5011376;28;103901;-67
2022/03/04 02:01:06;;;;;;;14.57;11.13;;;;;;;-0.72;70.46;98807.56;5012583;28;103382;-68
2022/03/04 02:03:35;;;;;;;16.53;12.57;;;;;;;-0.75;71.25;98807.66;5018196;28;103241;-67
2022/03/04 02:06:03;;;;;;;17.80;13.43;;;;;;;-0.77;71.49;98804.25;5016651;27;103903;-68
2022/03/04 02:08:31;;;;;;;19.60;13.77;;;;;;;-0.78;70.89;98802.53;5019005;27;102667;-67
2022/03/04 02:11:00;;;;;;;15.57;12.83;;;;;;;-0.71;71.06;98798.91;5014437;28;104570;-68
2022/03/04 02:13:28;;;;;;;16.20;12.00;;;;;;;-0.63;69.91;98798.69;5013597;28;103063;-71
2022/03/04 02:15:56;;;;;;;16.03;12.10;;;;;;;-0.59;70.45;98793.38;5016079;28;102600;-72
2022/03/04 02:18:26;;;;;;;14.50;10.80;;;;;;;-0.55;70.21;98791.56;5016654;27;102748;-72
2022/03/04 02:20:54;;;;;;;18.80;14.03;;;;;;;-1.17;71.92;98790.56;5016545;28;103223;-68
2022/03/04 02:23:23;;;;;;;15.97;13.17;;;;;;;-0.97;72.01;98790.91;5014168;28;103186;-67
2022/03/04 02:25:52;;;;;;;15.90;11.37;;;;;;;-0.86;71.94;98794.09;5013808;27;104960;-67
2022/03/04 02:28:22;;;;;;;20.13;14.13;;;;;;;-1.22;71.82;98787.22;5014685;28;104642;-67
2022/03/04 02:30:50;;;;;;;18.87;13.57;;;;;;;-1.27;72.80;98791.66;5015271;28;104126;-72
2022/03/04 02:33:18;;;;;;;20.60;12.20;;;;;;;-1.30;73.26;98786.56;5010828;28;103165;-71
2022/03/04 02:35:46;;;;;;;15.80;12.77;;;;;;;-1.25;73.13;98788.16;5010750;28;102569;-71
2022/03/04 02:38:14;;;;;;;15.67;11.70;;;;;;;-1.10;72.81;98789.53;5014811;28;103516;-71
2022/03/04 02:40:44;;;;;;;14.50;11.13;;;;;;;-0.92;72.38;98794.25;5014384;27;103742;-67
2022/03/04 02:43:12;;;;;;;15.43;11.03;;;;;;;-0.78;72.05;98792.16;5014664;27;103205;-67
2022/03/04 02:45:40;;;;;;;15.80;12.43;;;;;;;-0.77;71.37;98788.69;5016608;27;102684;-67
2022/03/04 02:48:11;;;;;;;19.27;13.60;;;;;;;-1.11;72.38;98790.41;5014195;28;103445;-67
2022/03/04 02:50:39;;;;;;;19.03;13.83;;;;;;;-1.40;73.37;98787.63;5016556;27;104053;-67
2022/03/04 02:53:11;;;;;;;16.40;12.33;;;;;;;-1.12;73.14;98786.09;5016751;27;103166;-67
2022/03/04 02:55:39;;;;;;;16.90;11.93;;;;;;;-1.10;72.18;98789.53;5015605;28;102647;-67
2022/03/04 02:58:08;;;;;;;15.73;12.47;;;;;;;-0.91;72.00;98789.91;5012199;28;103800;-67
2022/03/04 03:00:37;;;;;;;15.43;10.60;;;;;;;-0.84;71.49;98787.13;5016112;27;103226;-67
2022/03/04 03:03:05;;;;;;;18.07;13.53;;;;;;;-1.20;72.26;98793.22;5006978;28;104292;-67
2022/03/04 03:05:34;;;;;;;19.93;13.40;;;;;;;-1.18;72.83;98792.28;5015417;28;103100;-67
2022/03/04 03:08:02;;;;;;;17.53;12.60;;;;;;;-1.24;73.65;98791.59;5012494;27;104044;-67
2022/03/04 03:10:31;;;;;;;17.57;12.40;;;;;;;-1.27;72.90;98794.25;5016936;28;104170;-68
2022/03/04 03:12:59;;;;;;;15.67;12.20;;;;;;;-1.39;74.40;98797.13;5014307;28;104015;-69
2022/03/04 03:15:29;;;;;;;17.47;13.00;;;;;;;-1.34;73.80;98795.28;5013460;28;102779;-70
2022/03/04 03:17:57;;;;;;;15.27;11.90;;;;;;;-1.23;73.68;98795.88;5014082;28;103147;-70
2022/03/04 03:20:25;;;;;;;16.73;13.10;;;;;;;-1.34;72.37;98795.28;5014040;28;103163;-70
2022/03/04 03:22:53;;;;;;;13.17;10.53;;;;;;;-1.20;73.32;98795.81;5012501;28;104193;-70
2022/03/04 03:25:23;;;;;;;17.87;12.50;;;;;;;-1.45;73.54;98798.13;5016991;27;102524;-70
2022/03/04 03:27:54;;;;;;;21.30;13.70;;;;;;;-1.44;73.51;98798.97;5015446;28;102807;-70
2022/03/04 03:30:22;;;;;;;15.23;11.97;;;;;;;-1.29;73.80;98804.66;5013434;27;103272;-72
2022/03/04 03:32:52;;;;;;;15.40;13.00;;;;;;;-1.96;74.86;98810.47;5017787;27;103217;-71
2022/03/04 03:35:20;;;;;;;14.17;11.17;;;;;;;-1.58;75.23;98801.03;5014154;28;102645;-71
2022/03/04 03:37:48;;;;;;;15.30;12.77;;;;;;;-2.05;76.36;98799.47;5011476;28;102758;-70
2022/03/04 03:40:16;;;;;;;14.80;11.37;;;;;;;-1.75;76.21;98793.63;5016319;27;103195;-70
2022/03/04 03:42:44;;;;;;;15.63;11.47;;;;;;;-1.41;74.71;98798.91;5014343;28;102760;-70
2022/03/04 03:45:13;;;;;;;16.97;12.73;;;;;;;-1.57;74.96;98802.75;5012867;28;102769;-70
2022/03/04 03:47:41;;;;;;;15.90;12.30;;;;;;;-1.44;74.58;98799.84;5014932;27;103762;-70
2022/03/04 03:50:12;;;;;;;15.70;11.57;;;;;;;-1.36;74.16;98813.47;5016629;27;103217;-70
2022/03/04 03:52:41;;;;;;;16.17;12.17;;;;;;;-1.52;73.74;98804.34;5016819;28;103003;-71
2022/03/04 03:55:10;;;;;;;17.03;13.60;;;;;;;-1.93;75.46;98815.59;5012133;28;102638;-70
2022/03/04 03:57:37;;;;;;;13.37;10.70;;;;;;;-1.61;75.61;98812.31;5015654;28;102842;-70
2022/03/04 04:00:07;;;;;;;17.50;13.60;;;;;;;-2.17;76.50;98825.59;5012222;28;103864;-70
2022/03/04 04:02:41;;;;;;;16.03;10.90;;;;;;;-1.79;76.63;98823.06;5012879;28;103259;-70
2022/03/04 04:05:12;;;;;;;18.27;13.17;;;;;;;-2.03;76.77;98824.44;5012766;28;102635;-70
2022/03/04 04:07:40;;;;;;;20.20;13.10;;;;;;;-1.98;75.30;98825.19;5016686;27;102669;-70
2022/03/04 04:10:09;;;;;;;15.88;14.27;;;;;;;-1.42;75.16;98817.94;5006559;28;104201;-68
2022/03/04 04:12:37;;;;;;;18.38;16.45;;;;;;;-1.38;74.21;98819.59;5010514;28;103383;-66
2022/03/04 04:15:06;;;;;;;14.77;13.27;;;;;;;-0.81;72.77;98828.56;5013268;27;102646;-66
2022/03/04 04:17:34;;;;;;;17.23;15.43;;;;;;;-0.81;71.94;98823.38;5018702;28;104213;-68
2022/03/04 04:20:02;;;;;;;15.18;13.68;;;;;;;-0.60;70.99;98830.63;5016885;27;104152;-66
2022/03/04 04:22:31;;;;;;;18.15;16.35;;;;;;;-0.57;69.11;98823.66;5019025;27;103190;-70
2022/03/04 04:25:02;;;;;;;14.13;12.80;;;;;;;-0.26;69.81;98824.53;5015365;28;102766;-70
2022/03/04 04:27:30;;;;;;;18.17;16.27;;;;;;;-0.72;68.76;98823.13;5009367;28;104411;-66
2022/03/04 04:29:58;;;;;;;17.05;15.35;;;;;;;-0.88;72.03;98820.97;5018912;27;103984;-68
2022/03/04 04:32:25;;;;;;;18.08;16.27;;;;;;;-1.13;72.46;98819.84;5013722;28;103279;-68
2022/03/04 04:34:53;;;;;;;16.77;15.07;;;;;;;-0.49;70.59;98830.34;5016522;27;102944;-68
2022/03/04 04:37:21;;;;;;;17.80;16.00;;;;;;;-0.89;71.58;98827.91;5012663;28;103184;-72
2022/03/04 04:39:51;;;;;;;17.02;15.32;;;;;;;-0.50;70.14;98827.78;5015580;28;103713;-72
2022/03/04 04:42:19;;;;;;;14.80;13.30;;;;;;;-0.35;69.94;98832.56;5016127;27;103209;-72
2022/03/04 04:44:46;;;;;;;14.82;13.35;;;;;;;-0.14;67.93;98830.25;5014413;28;102640;-72
2022/03/04 04:47:15;;;;;;;18.33;16.42;;;;;;;-0.82;69.02;98832.06;5016870;28;102718;-72
2022/03/04 04:49:45;;;;;;;15.60;14.10;;;;;;;-0.41;69.87;98827.53;5016006;28;103301;-71
2022/03/04 04:52:14;;;;;;;16.80;15.18;;;;;;;-0.55;70.01;98837.41;5014246;27;103192;-71
2022/03/04 04:54:42;;;;;;;16.65;14.95;;;;;;;-0.38;68.55;98843.03;5013848;28;102692;-72
2022/03/04 04:57:14;;;;;;;17.17;15.48;;;;;;;-0.38;69.01;98837.84;5013749;28;102853;-68
2022/03/04 04:59:42;;;;;;;14.90;13.05;;;;;;;-0.10;68.19;98839.66;5016405;28;104341;-66
2022/03/04 05:02:10;;;;;;;17.07;15.37;;;;;;;-0.98;72.38;98840.25;5016440;28;103216;-67
2022/03/04 05:04:38;;;;;;;15.88;14.27;;;;;;;-0.49;69.79;98845.91;5013935;28;102779;-68
2022/03/04 05:07:06;;;;;;;20.90;17.38;;;;;;;-1.07;69.57;98846.50;5014583;28;104417;-72
2022/03/04 05:09:34;;;;;;;17.45;15.65;;;;;;;-0.70;70.20;98852.50;5015198;28;104074;-72
2022/03/04 05:12:06;;;;;;;15.73;14.13;;;;;;;-0.25;69.04;98854.78;5016116;27;103179;-69
2022/03/04 05:14:35;;;;;;;19.38;17.38;;;;;;;-0.80;69.66;98861.41;5015705;27;102654;-65
2022/03/04 05:17:03;;;;;;;17.42;15.57;;;;;;;-0.55;69.37;98853.00;5015773;28;103081;-66
2022/03/04 05:19:33;;;;;;;17.85;16.05;;;;;;;-0.37;68.90;98855.13;5015434;28;103727;-65
2022/03/04 05:22:04;;;;;;;14.93;13.43;;;;;;;-0.16;67.67;98854.53;5015628;27;103203;-66
2022/03/04 05:24:32;;;;;;;16.38;14.68;;;;;;;-0.05;66.65;98863.75;5015671;28;102707;-66
2022/03/04 05:27:00;;;;;;;15.95;14.40;;;;;;;-0.08;66.96;98853.44;5014740;28;103929;-66
2022/03/04 05:29:28;;;;;;;16.52;13.88;;;;;;;-0.03;66.91;98851.56;5015701;28;103471;-66
2022/03/04 05:32:00;;;;;;;18.13;15.93;;;;;;;-0.06;65.80;98861.22;5013196;28;104192;-66
2022/03/04 05:34:28;;;;;;;17.53;15.70;;;;;;;-0.28;67.00;98855.72;5016208;27;102814;-66
2022/03/04 05:36:56;;;;;;;19.20;17.10;;;;;;;-0.40;66.96;98865.59;5015928;28;102663;-66
2022/03/04 05:39:24;;;;;;;17.97;16.07;;;;;;;-0.30;67.55;98861.84;5015790;27;103280;-66
2022/03/04 05:41:52;;;;;;;16.95;15.23;;;;;;;-0.22;67.31;98859.91;5013284;28;104439;-69
2022/03/04 05:44:22;;;;;;;18.52;16.65;;;;;;;-0.44;67.33;98866.56;5017370;27;102860;-65
2022/03/04 05:46:50;;;;;;;17.60;15.77;;;;;;;-0.49;68.36;98871.00;5013675;28;104057;-65
2022/03/04 05:49:22;;;;;;;17.20;15.40;;;;;;;-0.30;67.71;98869.63;5013293;28;103889;-65
2022/03/04 05:51:50;;;;;;;14.70;13.20;;;;;;;-0.20;67.26;98878.91;5014821;28;103190;-66
2022/03/04 05:54:18;;;;;;;17.90;14.87;;;;;;;-0.16;66.69;98883.97;5014196;28;102808;-65
2022/03/04 05:56:46;;;;;;;14.85;13.32;;;;;;;-0.11;66.49;98884.69;5014717;27;103860;-65
2022/03/04 05:59:14;;;;;;;17.42;15.68;;;;;;;-0.17;66.22;98882.25;5016836;27;103635;-65
2022/03/04 06:01:42;;;;;;;16.70;15.10;;;;;;;-0.22;66.43;98883.28;5014831;28;103170;-65
2022/03/04 06:04:12;;;;;;;17.98;16.08;;;;;;;-0.18;66.71;98883.16;5015307;27;102580;-66
2022/03/04 06:06:41;;;;;;;16.30;14.70;;;;;;;-0.11;66.31;98882.09;5016377;27;102744;-66
2022/03/04 06:09:10;;;;;;;17.67;15.98;;;;;;;-0.11;66.14;98883.84;5011632;28;104154;-67
2022/03/04 06:11:38;;;;;;;19.13;17.23;;;;;;;-0.54;66.74;98891.03;5011408;27;103190;-67
2022/03/04 06:14:06;;;;;;;18.37;16.57;;;;;;;-0.78;69.11;98889.88;5015156;28;102894;-67
2022/03/04 06:16:34;;;;;;;15.45;14.02;;;;;;;-0.38;68.31;98889.75;5015205;27;102651;-67
2022/03/04 06:19:02;;;;;;;18.75;16.80;;;;;;;-0.78;69.50;98895.06;5016824;27;103992;-67
2022/03/04 06:21:30;;;;;;;14.02;12.63;;;;;;;-0.31;68.38;98891.31;5014660;27;103493;-67
2022/03/04 06:23:59;;;;;;;14.65;13.15;;;;;;;-0.05;66.96;98883.69;5015169;27;102729;-67
2022/03/04 06:26:29;;;;;;;20.27;18.17;;;;;;;-0.40;66.96;98896.75;5014180;28;102640;-67
2022/03/04 06:28:57;;;;;;;19.60;17.60;;;;;;;-0.54;68.65;98899.69;5014002;28;104510;-66
2022/03/04 06:31:25;;;;;;;15.60;14.10;;;;;;;-0.18;68.37;98901.34;5016002;28;102968;-66
2022/03/04 06:33:53;;;;;;;15.40;13.90;;;;;;;0.10;66.93;98896.25;5013967;27;102972;-67
2022/03/04 06:36:21;;;;;;;17.48;15.38;;;;;;;0.17;67.04;98902.16;5012893;28;104107;-67
2022/03/04 06:38:50;;;;;;;17.40;15.65;;;;;;;0.27;66.61;98901.00;5014124;27;104288;-67
2022/03/04 06:41:19;;;;;;;17.02;15.23;;;;;;;0.42;66.49;98911.78;5012608;28;103201;-67
2022/03/04 06:43:48;;;;;;;20.35;17.15;;;;;;;0.38;66.75;98904.16;5011976;28;102961;-67
2022/03/04 06:46:17;;;;;;;19.07;17.00;;;;;;;0.20;68.35;98910.69;5016284;28;102878;-67
2022/03/04 06:48:44;;;;;;;15.77;14.27;;;;;;;0.50;67.50;98915.06;5012343;28;103252;-67
2022/03/04 06:51:13;;;;;;;23.20;17.35;;;;;;;0.55;66.46;98920.97;5013578;27;103218;-71
2022/03/04 06:53:41;;;;;;;17.10;15.30;;;;;;;0.71;66.23;98913.56;5013740;27;102833;-71
2022/03/04 06:56:09;;;;;;;17.85;15.60;;;;;;;0.80;66.19;98928.91;5007866;28;102770;-73
2022/03/04 06:58:40;;;;;;;16.33;14.63;;;;;;;0.95;65.34;98930.22;5012707;28;104086;-72
2022/03/04 07:01:08;;;;;;;17.27;14.70;;;;;;;1.09;64.56;98925.44;5014947;28;103204;-71
2022/03/04 07:03:36;;;;;;;15.27;13.60;;;;;;;1.24;64.47;98932.75;5015004;28;102952;-67
2022/03/04 07:06:04;;;;;;;17.33;15.63;;;;;;;1.33;64.06;98934.22;5014235;27;102748;-66
2022/03/04 07:08:36;;;;;;;21.23;16.57;;;;;;;1.40;64.28;98931.38;5012087;28;104048;-72
2022/03/04 07:11:04;;;;;;;16.75;15.02;;;;;;;1.57;64.26;98936.88;5011029;28;103184;-66
2022/03/04 07:13:32;;;;;;;14.90;13.35;;;;;;;1.72;63.01;98938.13;5011026;27;102839;-67
2022/03/04 07:16:02;;;;;;;19.52;16.75;;;;;;;1.90;62.53;98947.09;5013005;27;102685;-67
2022/03/04 07:18:31;;;;;;;31.27;25.20;;;;;;;1.97;62.41;98945.97;5013020;28;104091;-67
2022/03/04 07:21:00;;;;;;;24.08;19.55;;;;;;;2.05;62.76;98949.19;5009439;28;103270;-67
2022/03/04 07:23:29;;;;;;;18.60;16.15;;;;;;;2.40;61.95;98946.19;5008570;28;102852;-68
2022/03/04 07:25:57;;;;;;;18.77;16.63;;;;;;;2.53;61.97;98955.28;5011259;28;103933;-71
2022/03/04 07:28:25;;;;;;;22.90;17.40;;;;;;;2.85;61.68;98954.97;5009130;27;103634;-72
2022/03/04 07:30:53;;;;;;;25.02;18.27;;;;;;;2.90;61.03;98945.19;5011258;28;103301;-72
2022/03/04 07:33:23;;;;;;;21.60;18.33;;;;;;;3.14;61.08;98955.63;5008333;28;102972;-67
2022/03/04 07:35:51;;;;;;;20.65;18.48;;;;;;;3.35;60.06;98949.56;5007827;28;104220;-67
2022/03/04 07:38:19;;;;;;;19.27;17.35;;;;;;;3.67;58.81;98963.97;5009157;28;103202;-68
2022/03/04 07:40:47;;;;;;;23.95;18.90;;;;;;;3.72;58.73;98957.63;5010036;27;103351;-68
2022/03/04 07:43:18;;;;;;;21.30;17.63;;;;;;;4.10;57.97;98956.88;5004553;27;103350;-73
2022/03/04 07:45:46;;;;;;;18.92;16.67;;;;;;;4.02;57.22;98956.38;5008014;27;102812;-73
2022/03/04 07:48:14;;;;;;;20.17;18.08;;;;;;;3.01;57.64;98955.22;5002731;28;103847;-68
2022/03/04 07:50:43;;;;;;;20.83;18.27;;;;;;;3.40;57.16;98952.84;5004526;28;103195;-68
2022/03/04 07:53:11;;;;;;;21.73;18.00;;;;;;;3.45;58.05;98958.75;5012756;27;102845;-69
2022/03/04 07:55:39;;;;;;;19.50;17.42;;;;;;;4.13;56.21;98952.47;5006394;28;103901;-74
2022/03/04 07:58:07;;;;;;;20.53;18.07;;;;;;;4.84;54.58;98949.28;5003771;28;103639;-74
2022/03/04 08:00:36;;;;;;;20.15;17.75;;;;;;;4.61;52.63;98955.56;5006489;28;103303;-69
2022/03/04 08:03:10;;;;;;;20.67;18.67;;;;;;;3.97;54.84;98953.09;5010523;28;102650;-67
2022/03/04 08:05:39;;;;;;;19.15;17.15;;;;;;;5.43;53.85;98952.63;5015550;27;103960;-67
2022/03/04 08:08:08;;;;;;;19.98;17.92;;;;;;;5.99;51.72;98956.91;5011626;28;104135;-73
2022/03/04 08:10:36;;;;;;;19.63;17.65;;;;;;;6.13;50.72;98963.16;5014684;28;102748;-73
2022/03/04 08:13:05;;;;;;;20.15;18.05;;;;;;;6.62;49.83;98968.53;5011662;27;102556;-68
2022/03/04 08:15:33;;;;;;;19.58;17.55;;;;;;;6.59;50.18;98960.81;5014275;27;102600;-72
2022/03/04 08:18:01;;;;;;;19.60;17.63;;;;;;;6.52;50.69;98962.06;5011009;28;103302;-73
2022/03/04 08:20:31;;;;;;;20.30;18.30;;;;;;;6.15;49.97;98958.69;5014341;28;104178;-73
2022/03/04 08:22:59;;;;;;;20.88;18.70;;;;;;;6.57;49.87;98963.50;5007894;28;102787;-73
2022/03/04 08:25:28;;;;;;;19.95;17.95;;;;;;;6.64;48.84;98958.78;5010121;28;102745;-74
2022/03/04 08:27:56;;;;;;;21.33;18.33;;;;;;;6.84;50.05;98956.84;5009439;28;104133;-73
2022/03/04 08:30:24;;;;;;;19.80;17.90;;;;;;;7.35;48.83;98950.53;5012947;27;103274;-69
2022/03/04 08:32:53;;;;;;;19.70;17.70;;;;;;;7.88;47.95;98950.13;5014143;27;103177;-69
2022/03/04 08:35:20;;;;;;;21.03;18.57;;;;;;;7.98;47.14;98955.69;5006339;28;102844;-69
2022/03/04 08:37:49;;;;;;;19.20;17.30;;;;;;;7.64;47.60;98958.56;5015324;27;103640;-74
2022/03/04 08:40:17;;;;;;;19.90;17.77;;;;;;;8.07;46.49;98950.75;5007423;28;104160;-69
2022/03/04 08:42:46;;;;;;;20.10;18.23;;;;;;;8.10;47.22;98961.13;5013396;27;102670;-74
2022/03/04 08:45:16;;;;;;;20.73;18.48;;;;;;;7.96;46.31;98957.59;5013440;28;103949;-75
2022/03/04 08:47:46;;;;;;;18.93;15.87;;;;;;;8.00;45.47;98959.13;5009608;27;104063;-70
2022/03/04 08:50:16;;;;;;;20.47;15.03;;;;;;;7.16;46.64;98968.22;5012488;28;103198;-69
2022/03/04 08:52:44;;;;;;;22.57;16.13;;;;;;;5.33;50.60;98971.47;5010377;28;102691;-74
2022/03/04 08:55:15;;;;;;;21.87;16.70;;;;;;;5.43;49.58;98967.47;5014291;28;102794;-69
2022/03/04 08:57:46;;;;;;;17.57;15.67;;;;;;;6.62;49.71;98966.78;5012441;27;103064;-69
2022/03/04 09:00:17;;;;;;;22.70;16.73;;;;;;;6.59;48.33;98974.81;5015511;28;104355;-70
2022/03/04 09:02:46;;;;;;;21.57;16.90;;;;;;;5.83;49.21;98972.53;5017080;27;102889;-70
2022/03/04 09:05:14;;;;;;;21.47;16.70;;;;;;;6.11;48.90;98966.78;5018073;27;104046;-74
2022/03/04 09:07:43;;;;;;;21.87;17.37;;;;;;;7.02;48.56;98968.09;5011602;28;104228;-78
2022/03/04 09:10:11;;;;;;;20.70;17.30;;;;;;;7.83;47.32;98956.59;5011186;28;103194;-78
2022/03/04 09:12:39;;;;;;;23.17;17.00;;;;;;;7.35;47.24;98965.44;5015836;28;102734;-78
2022/03/04 09:15:10;;;;;;;22.20;17.50;;;;;;;5.49;49.68;98961.97;5015124;28;103600;-70
2022/03/04 09:17:39;;;;;;;22.00;16.97;;;;;;;5.47;49.78;98966.44;5011853;28;104248;-71
2022/03/04 09:20:09;;;;;;;21.50;16.80;;;;;;;6.28;48.50;98964.19;5016676;28;103362;-70
2022/03/04 09:22:39;;;;;;;20.70;16.50;;;;;;;5.66;48.91;98965.47;5019882;27;102821;-70
2022/03/04 09:25:08;;;;;;;19.80;17.10;;;;;;;4.97;49.56;98963.56;5015057;28;104045;-70
2022/03/04 09:27:36;;;;;;;21.57;17.53;;;;;;;5.88;49.18;98953.97;5017937;27;104097;-70
2022/03/04 09:30:04;;;;;;;21.93;18.00;;;;;;;5.71;49.44;98957.38;5016733;27;103268;-70
2022/03/04 09:32:34;;;;;;;21.80;16.87;;;;;;;6.03;49.51;98959.31;5018135;27;102602;-78
2022/03/04 09:35:03;;;;;;;21.37;17.17;;;;;;;6.02;49.84;98957.59;5015466;27;102782;-78
2022/03/04 09:37:30;;;;;;;21.87;17.50;;;;;;;6.87;47.97;98958.44;5015318;28;103242;-78
2022/03/04 09:39:58;;;;;;;20.67;17.07;;;;;;;7.06;47.21;98958.28;5010164;28;104392;-77
2022/03/04 09:42:27;;;;;;;19.70;16.83;;;;;;;7.32;47.09;98955.97;5018556;27;102675;-78
2022/03/04 09:44:55;;;;;;;20.73;16.80;;;;;;;7.81;45.89;98958.44;5018164;28;102862;-77
2022/03/04 09:47:24;;;;;;;22.70;20.30;;;;;;;6.49;45.57;98962.22;5016715;28;103241;-78
2022/03/04 09:49:55;;;;;;;21.67;19.58;;;;;;;7.31;46.47;98953.41;5018578;27;103246;-77
2022/03/04 09:52:23;;;;;;;22.23;17.93;;;;;;;7.49;45.88;98958.47;5020970;28;102655;-77
2022/03/04 09:54:53;;;;;;;22.20;18.23;;;;;;;7.02;45.81;98962.03;5016452;28;103958;-77
2022/03/04 09:57:22;;;;;;;22.33;18.13;;;;;;;7.37;46.28;98959.19;5016905;28;104547;-70
2022/03/04 09:59:50;;;;;;;21.13;18.27;;;;;;;7.51;44.98;98959.25;5016911;28;103188;-77
2022/03/04 10:02:21;;;;;;;20.87;18.13;;;;;;;6.47;46.77;98958.81;5012300;28;102696;-78
2022/03/04 10:04:59;;;;;;;22.77;17.80;;;;;;;6.45;46.72;98965.94;5015660;28;102830;-77
2022/03/04 10:07:37;;;;;;;20.10;16.60;;;;;;;7.09;45.57;98951.09;5010342;28;103383;-77
2022/03/04 10:10:12;;;;;;;21.63;17.87;;;;;;;6.35;46.76;98953.28;5013574;27;103197;-77
2022/03/04 10:12:53;;;;;;;22.33;18.07;;;;;;;6.97;46.33;98957.00;5018580;27;102674;-78
2022/03/04 10:15:21;;;;;;;22.30;17.57;;;;;;;6.98;45.28;98964.81;5015765;27;103624;-71
2022/03/04 10:18:02;;;;;;;21.17;17.07;;;;;;;6.71;45.83;98952.31;5016059;28;103889;-71
2022/03/04 10:20:38;;;;;;;21.43;18.07;;;;;;;7.62;47.36;98947.28;5013159;28;103922;-71
2022/03/04 10:23:11;;;;;;;21.83;18.30;;;;;;;7.22;46.13;98953.91;5015721;28;102640;-71
2022/03/04 10:25:44;;;;;;;25.50;18.33;;;;;;;7.25;45.76;98954.59;5015450;28;103970;-71
2022/03/04 10:28:12;;;;;;;21.20;17.00;;;;;;;7.58;44.61;98947.44;5004285;28;103247;-78
2022/03/04 10:30:45;;;;;;;21.37;17.50;;;;;;;8.28;44.41;98938.16;5015258;28;103195;-77
2022/03/04 10:33:16;;;;;;;19.33;16.67;;;;;;;8.94;43.73;98935.00;5016602;28;102833;-77
2022/03/04 10:35:50;;;;;;;22.43;18.33;;;;;;;8.28;42.97;98938.16;5016010;28;102624;-71
2022/03/04 10:38:20;;;;;;;22.40;18.70;;;;;;;7.97;44.69;98935.63;5016532;28;104182;-71
2022/03/04 10:40:49;;;;;;;23.42;20.98;;;;;;;8.17;42.99;98937.91;5012831;28;105165;-71
2022/03/04 10:43:23;;;;;;;23.02;20.73;;;;;;;9.40;42.17;98936.47;5013347;28;102552;-71
2022/03/04 10:46:01;;;;;;;22.92;20.63;;;;;;;9.08;39.90;98919.19;5005480;27;104180;-77
2022/03/04 10:48:31;;;;;;;21.40;19.30;;;;;;;9.74;39.54;98930.69;5017506;28;103005;-71
2022/03/04 10:51:05;;;;;;;23.10;20.80;;;;;;;9.65;38.53;98930.47;5014250;28;103249;-71
2022/03/04 10:53:34;;;;;;;22.33;20.00;;;;;;;10.26;39.55;98929.91;5012644;27;102681;-70
2022/03/04 10:56:04;;;;;;;21.38;19.33;;;;;;;10.39;37.85;98922.84;5014601;28;104287;-71
2022/03/04 10:58:37;;;;;;;21.90;19.80;;;;;;;10.44;38.04;98912.84;5011863;28;104191;-71
2022/03/04 11:01:09;;;;;;;20.55;18.55;;;;;;;9.44;36.19;98924.78;5017128;28;103166;-76
2022/03/04 11:03:39;;;;;;;19.60;17.60;;;;;;;9.97;35.35;98909.84;5014808;28;102534;-76
2022/03/04 11:06:11;;;;;;;20.07;18.07;;;;;;;10.12;35.79;98914.13;5015784;28;104073;-71
2022/03/04 11:08:40;;;;;;;20.47;18.37;;;;;;;9.02;37.35;98919.56;5015716;27;104059;-76
2022/03/04 11:11:08;;;;;;;20.65;18.55;;;;;;;10.13;35.86;98910.59;5016837;27;103189;-77
2022/03/04 11:13:37;;;;;;;21.23;19.13;;;;;;;8.50;37.41;98916.66;5013961;28;102872;-76
2022/03/04 11:16:06;;;;;;;20.40;18.40;;;;;;;9.11;36.95;98906.69;5011620;28;102681;-76
2022/03/04 11:18:35;;;;;;;21.77;19.10;;;;;;;9.18;37.57;98915.03;5016042;28;104642;-76
2022/03/04 11:21:05;;;;;;;20.67;18.67;;;;;;;9.89;37.61;98908.59;5019793;27;102646;-76